Time;durP1;ratioP1;P1;durP2;ratioP2;P2;SDS_P1;SDS_P2;PMS_P1;PMS_P2;Temp;Humidity;BMP_temperature;BMP_pressure;BME280_temperature;BME280_humidity;BME280_pressure;Samples;Min_cycle;Max_cycle;Signal;HPM_P1;HPM_P2
2022/01/09 00:01:54;;;;;;;9.77;9.27;;;4.80;99.90;;;;;;5063405;28;20202;-75
2022/01/09 00:04:21;;;;;;;10.07;9.47;;;4.80;99.90;;;;;;5087678;28;20235;-75
2022/01/09 00:06:48;;;;;;;10.30;9.70;;;4.90;99.90;;;;;;5051876;28;20196;-75
2022/01/09 00:09:16;;;;;;;10.43;9.83;;;4.80;99.90;;;;;;5087013;28;20198;-75
2022/01/09 00:11:46;;;;;;;11.00;10.40;;;4.80;99.90;;;;;;5056444;28;20622;-75
2022/01/09 00:14:14;;;;;;;10.50;9.90;;;4.80;99.90;;;;;;5078946;28;20195;-75
2022/01/09 00:16:41;;;;;;;10.70;10.10;;;4.80;99.90;;;;;;5075766;28;20198;-75
2022/01/09 00:19:07;;;;;;;10.50;10.00;;;4.80;99.90;;;;;;5065101;28;20562;-75
2022/01/09 00:21:34;;;;;;;10.20;9.70;;;4.70;99.90;;;;;;5084400;28;20189;-74
2022/01/09 00:24:01;;;;;;;10.50;9.90;;;4.80;99.90;;;;;;5084430;28;20600;-76
2022/01/09 00:26:28;;;;;;;10.60;10.00;;;4.80;99.90;;;;;;5079202;28;20591;-75
2022/01/09 00:28:55;;;;;;;10.20;9.70;;;4.90;99.90;;;;;;5083570;28;20201;-75
2022/01/09 00:31:23;;;;;;;10.23;9.73;;;4.90;99.90;;;;;;5065226;28;20218;-74
2022/01/09 00:33:50;;;;;;;10.80;10.20;;;5.00;99.90;;;;;;5084166;28;20201;-75
2022/01/09 00:36:17;;;;;;;10.40;9.90;;;5.00;99.90;;;;;;5083291;28;20186;-74
2022/01/09 00:38:43;;;;;;;10.73;10.10;;;5.00;99.90;;;;;;5065815;28;20305;-74
2022/01/09 00:41:10;;;;;;;10.60;10.00;;;5.10;99.90;;;;;;5063254;28;20218;-75
2022/01/09 00:43:37;;;;;;;11.10;10.50;;;5.10;99.90;;;;;;5084003;28;20186;-75
2022/01/09 00:46:04;;;;;;;10.87;10.27;;;5.10;99.90;;;;;;5063887;28;20251;-74
2022/01/09 00:48:32;;;;;;;10.90;10.30;;;5.10;99.90;;;;;;5065726;28;20194;-75
2022/01/09 00:50:59;;;;;;;10.83;10.23;;;5.10;99.90;;;;;;5083351;28;20624;-74
2022/01/09 00:53:26;;;;;;;10.87;10.30;;;5.20;99.90;;;;;;5083629;28;20198;-75
2022/01/09 00:55:53;;;;;;;11.23;10.63;;;5.20;99.90;;;;;;5083656;28;20255;-75
2022/01/09 00:58:22;;;;;;;10.90;10.30;;;5.20;99.90;;;;;;5061814;28;20206;-75
2022/01/09 01:00:49;;;;;;;10.60;10.10;;;5.20;99.90;;;;;;5065404;28;20224;-74
2022/01/09 01:03:16;;;;;;;10.80;10.20;;;5.20;99.90;;;;;;5063847;28;20710;-75
2022/01/09 01:05:44;;;;;;;11.20;10.50;;;5.20;99.90;;;;;;5065601;28;20243;-75
2022/01/09 01:08:11;;;;;;;11.07;10.47;;;5.20;99.90;;;;;;5064291;28;20194;-75
2022/01/09 01:10:37;;;;;;;11.17;10.50;;;5.20;99.90;;;;;;5084570;28;20604;-74
2022/01/09 01:13:04;;;;;;;11.00;10.40;;;5.20;99.90;;;;;;5062144;28;20186;-75
2022/01/09 01:15:31;;;;;;;11.10;10.50;;;5.20;99.90;;;;;;5074596;28;20197;-75
2022/01/09 01:17:58;;;;;;;10.83;10.27;;;5.30;99.90;;;;;;5086586;28;20713;-75
2022/01/09 01:20:27;;;;;;;11.00;10.40;;;5.20;99.90;;;;;;5061958;28;20621;-75
2022/01/09 01:22:58;;;;;;;10.87;10.27;;;5.20;99.90;;;;;;5066899;28;20199;-74
2022/01/09 01:25:24;;;;;;;10.80;10.20;;;5.20;99.90;;;;;;5059679;28;20202;-75
2022/01/09 01:27:51;;;;;;;10.70;10.20;;;5.10;99.90;;;;;;5082549;28;20192;-75
2022/01/09 01:30:19;;;;;;;10.83;10.23;;;5.10;99.90;;;;;;5082084;28;20218;-74
2022/01/09 01:32:46;;;;;;;10.50;10.00;;;5.10;99.90;;;;;;5077321;28;20213;-75
2022/01/09 01:35:14;;;;;;;11.00;10.40;;;5.10;99.90;;;;;;5081017;28;20198;-74
2022/01/09 01:37:42;;;;;;;10.87;10.27;;;5.00;99.90;;;;;;5083090;28;20229;-75
2022/01/09 01:40:15;;;;;;;10.77;10.20;;;5.00;99.90;;;;;;5064635;28;20218;-74
2022/01/09 01:42:43;;;;;;;10.70;10.10;;;5.00;99.90;;;;;;5065314;28;20193;-75
2022/01/09 01:45:10;;;;;;;10.83;10.30;;;4.90;99.90;;;;;;5081095;28;20182;-75
2022/01/09 01:47:38;;;;;;;10.70;10.10;;;4.90;99.90;;;;;;5064872;28;20687;-75
2022/01/09 01:50:07;;;;;;;10.77;10.20;;;5.00;99.90;;;;;;5063841;28;20220;-75
2022/01/09 01:52:38;;;;;;;10.33;9.83;;;5.00;99.90;;;;;;5083081;28;20209;-74
2022/01/09 01:55:11;;;;;;;10.93;10.33;;;5.10;99.90;;;;;;5082781;28;20189;-74
2022/01/09 01:57:41;;;;;;;10.50;10.00;;;5.10;99.90;;;;;;5064776;28;20201;-75
2022/01/09 02:00:11;;;;;;;10.90;10.37;;;5.10;99.90;;;;;;5082073;28;20214;-74
2022/01/09 02:02:38;;;;;;;10.90;10.30;;;5.20;99.90;;;;;;5064415;28;20198;-75
2022/01/09 02:05:06;;;;;;;10.87;10.27;;;5.30;99.90;;;;;;5082543;28;20190;-75
2022/01/09 02:07:33;;;;;;;10.70;10.20;;;5.30;99.90;;;;;;5079301;28;20202;-75
2022/01/09 02:10:00;;;;;;;10.60;10.10;;;5.40;99.90;;;;;;5082993;28;20210;-75
2022/01/09 02:12:28;;;;;;;11.10;10.50;;;5.40;99.90;;;;;;5086909;28;20216;-75
2022/01/09 02:14:56;;;;;;;11.00;10.40;;;5.50;99.90;;;;;;5077796;28;20292;-75
2022/01/09 02:17:23;;;;;;;11.10;10.50;;;5.50;99.90;;;;;;5061478;28;20202;-75
2022/01/09 02:19:55;;;;;;;11.20;10.60;;;5.60;99.90;;;;;;5086562;28;20264;-75
2022/01/09 02:22:23;;;;;;;11.10;10.50;;;5.60;99.90;;;;;;5062400;28;20939;-75
2022/01/09 02:24:50;;;;;;;11.00;10.40;;;5.60;99.90;;;;;;5062853;28;20632;-75
2022/01/09 02:27:17;;;;;;;11.20;10.60;;;5.60;99.90;;;;;;5066891;28;20202;-75
2022/01/09 02:29:46;;;;;;;11.30;10.70;;;5.60;99.90;;;;;;5085028;28;20206;-75
2022/01/09 02:32:13;;;;;;;10.73;10.23;;;5.60;99.90;;;;;;5066342;28;20202;-75
2022/01/09 02:34:40;;;;;;;11.00;10.40;;;5.50;99.90;;;;;;5067001;28;20199;-76
2022/01/09 02:37:08;;;;;;;10.97;10.37;;;5.50;99.90;;;;;;5066615;28;20202;-74
2022/01/09 02:39:35;;;;;;;10.90;10.30;;;5.50;99.90;;;;;;5079682;28;20224;-74
2022/01/09 02:42:02;;;;;;;10.97;10.37;;;5.50;99.90;;;;;;5086451;28;20573;-75
2022/01/09 02:44:28;;;;;;;10.90;10.30;;;5.50;99.90;;;;;;5072419;28;20194;-75
2022/01/09 02:47:02;;;;;;;10.87;10.30;;;5.50;99.90;;;;;;5079869;28;20205;-75
2022/01/09 02:49:31;;;;;;;10.80;10.30;;;5.50;99.90;;;;;;5072392;28;20634;-74
2022/01/09 02:51:58;;;;;;;11.00;10.40;;;5.40;99.90;;;;;;5063575;28;20391;-74
2022/01/09 02:57:11;;;;;;;10.80;10.30;;;5.40;99.90;;;;;;5064745;28;20203;-75
2022/01/09 02:59:38;;;;;;;10.83;10.30;;;5.30;99.90;;;;;;5085271;28;20212;-75
2022/01/09 03:02:05;;;;;;;10.83;10.23;;;5.40;99.90;;;;;;5064818;28;20202;-75
2022/01/09 03:04:32;;;;;;;10.60;10.10;;;5.40;99.90;;;;;;5085049;28;20195;-74
2022/01/09 03:06:59;;;;;;;10.83;10.27;;;5.50;99.90;;;;;;5084272;28;20274;-75
2022/01/09 03:09:29;;;;;;;10.80;10.20;;;5.60;99.90;;;;;;5059753;28;20201;-75
2022/01/09 03:11:56;;;;;;;10.80;10.20;;;5.60;99.90;;;;;;5085634;28;20200;-75
2022/01/09 03:14:23;;;;;;;10.57;10.07;;;5.60;99.90;;;;;;5061359;28;20212;-74
2022/01/09 03:16:50;;;;;;;10.80;10.20;;;5.70;99.90;;;;;;5080240;28;20574;-75
2022/01/09 03:19:16;;;;;;;10.73;10.23;;;5.70;99.90;;;;;;5082087;28;20221;-75
2022/01/09 03:21:43;;;;;;;11.00;10.40;;;5.80;99.90;;;;;;5081363;28;20195;-75
2022/01/09 03:24:10;;;;;;;10.63;10.03;;;5.80;99.90;;;;;;5065047;28;20198;-75
2022/01/09 03:26:39;;;;;;;11.23;10.63;;;5.80;99.90;;;;;;5083612;28;20568;-75
2022/01/09 03:29:05;;;;;;;10.90;10.30;;;5.80;99.90;;;;;;5065223;28;20651;-74
2022/01/09 03:31:32;;;;;;;11.00;10.40;;;5.80;99.90;;;;;;5078386;28;20577;-75
2022/01/09 03:33:59;;;;;;;10.67;10.17;;;5.90;99.90;;;;;;5085350;28;20686;-74
2022/01/09 03:36:26;;;;;;;10.83;10.33;;;5.80;99.90;;;;;;5061929;28;20202;-75
2022/01/09 03:38:53;;;;;;;11.00;10.40;;;5.90;99.90;;;;;;5062436;28;20226;-75
2022/01/09 03:41:20;;;;;;;10.80;10.30;;;5.80;99.90;;;;;;5082365;28;20265;-75
2022/01/09 03:43:48;;;;;;;11.10;10.50;;;5.80;99.90;;;;;;5063747;28;20194;-74
2022/01/09 03:46:15;;;;;;;11.00;10.40;;;5.80;99.90;;;;;;5083361;28;20191;-75
2022/01/09 03:48:42;;;;;;;11.00;10.40;;;5.80;99.90;;;;;;5082511;28;20198;-74
2022/01/09 03:51:10;;;;;;;11.07;10.47;;;5.80;99.90;;;;;;5082795;28;20220;-75
2022/01/09 03:53:37;;;;;;;11.07;10.47;;;5.70;99.90;;;;;;5081419;28;20198;-75
2022/01/09 03:56:05;;;;;;;10.50;10.00;;;5.70;99.90;;;;;;5066163;28;20202;-75
2022/01/09 03:58:36;;;;;;;10.90;10.30;;;5.70;99.90;;;;;;5056359;28;20695;-75
2022/01/09 04:01:06;;;;;;;10.90;10.30;;;5.60;99.90;;;;;;5082189;28;20725;-75
2022/01/09 04:03:33;;;;;;;11.00;10.40;;;5.50;99.90;;;;;;5071620;28;20268;-75
2022/01/09 04:06:01;;;;;;;10.80;10.20;;;5.50;99.90;;;;;;5062291;28;20557;-74
2022/01/09 04:08:28;;;;;;;10.87;10.37;;;5.40;99.90;;;;;;5045782;28;20221;-75
2022/01/09 04:10:56;;;;;;;11.00;10.40;;;5.30;99.90;;;;;;5081337;28;20266;-75
2022/01/09 04:13:23;;;;;;;10.90;10.40;;;5.30;99.90;;;;;;5081275;28;20198;-75
2022/01/09 04:15:50;;;;;;;11.10;10.50;;;5.30;99.90;;;;;;5056024;28;20214;-75
2022/01/09 04:18:20;;;;;;;11.00;10.40;;;5.30;99.90;;;;;;5060432;28;20203;-75
2022/01/09 04:20:48;;;;;;;10.97;10.37;;;5.20;99.90;;;;;;5085042;28;20210;-74
2022/01/09 04:23:16;;;;;;;10.67;10.17;;;5.20;99.90;;;;;;5064148;28;20202;-74
2022/01/09 04:25:45;;;;;;;11.00;10.40;;;5.20;99.90;;;;;;5064647;28;20251;-75
2022/01/09 04:28:13;;;;;;;10.70;10.20;;;5.20;99.90;;;;;;5079521;28;20194;-75
2022/01/09 04:30:40;;;;;;;11.00;10.40;;;5.30;99.90;;;;;;5071363;28;20219;-78
2022/01/09 04:33:08;;;;;;;10.60;10.10;;;5.30;99.90;;;;;;5069566;28;20290;-77
2022/01/09 04:35:37;;;;;;;10.87;10.27;;;5.30;99.90;;;;;;5082259;28;20356;-77
2022/01/09 04:38:05;;;;;;;10.90;10.30;;;5.20;99.90;;;;;;5056341;28;20245;-75
2022/01/09 04:40:32;;;;;;;10.73;10.23;;;5.20;99.90;;;;;;5065396;28;20225;-76
2022/01/09 04:43:02;;;;;;;11.10;10.50;;;5.10;99.90;;;;;;5060491;28;20225;-76
2022/01/09 04:45:29;;;;;;;11.37;10.77;;;5.10;99.90;;;;;;5056390;28;20201;-75
2022/01/09 04:48:01;;;;;;;10.77;10.27;;;5.00;99.90;;;;;;5061924;28;20202;-76
2022/01/09 04:50:30;;;;;;;11.00;10.40;;;5.00;99.90;;;;;;5055203;28;20225;-77
2022/01/09 04:53:04;;;;;;;11.03;10.43;;;4.90;99.90;;;;;;5061907;28;20206;-76
2022/01/09 04:55:33;;;;;;;10.90;10.40;;;4.90;99.90;;;;;;5075845;28;20350;-76
2022/01/09 04:58:00;;;;;;;11.10;10.50;;;4.80;99.90;;;;;;5078470;28;20206;-76
2022/01/09 05:00:28;;;;;;;11.40;10.80;;;4.70;99.90;;;;;;5056881;28;20582;-75
2022/01/09 05:02:55;;;;;;;10.80;10.30;;;4.70;99.90;;;;;;5053156;28;20571;-75
2022/01/09 05:05:22;;;;;;;10.90;10.30;;;4.70;99.90;;;;;;5054536;28;20203;-75
2022/01/09 05:07:49;;;;;;;10.73;10.23;;;4.60;99.90;;;;;;5060029;28;20417;-76
2022/01/09 05:10:17;;;;;;;11.10;10.40;;;4.60;99.90;;;;;;5063462;28;20230;-75
2022/01/09 05:12:44;;;;;;;10.80;10.30;;;4.50;99.90;;;;;;5062878;28;20201;-76
2022/01/09 05:15:13;;;;;;;10.90;10.30;;;4.40;99.90;;;;;;5067395;28;20204;-76
2022/01/09 05:17:40;;;;;;;11.30;10.70;;;4.30;99.90;;;;;;5052498;28;20393;-77
2022/01/09 05:20:08;;;;;;;11.00;10.40;;;4.30;99.90;;;;;;5074874;28;20218;-79
2022/01/09 05:22:37;;;;;;;11.00;10.40;;;4.20;99.90;;;;;;5054460;28;20218;-78
2022/01/09 05:25:06;;;;;;;11.00;10.40;;;4.20;99.90;;;;;;5053020;28;20646;-77
2022/01/09 05:27:36;;;;;;;11.10;10.50;;;4.10;99.90;;;;;;5067458;28;20199;-77
2022/01/09 05:30:04;;;;;;;10.90;10.40;;;4.10;99.90;;;;;;5061692;28;20218;-77
2022/01/09 05:32:31;;;;;;;10.53;10.03;;;4.00;99.90;;;;;;5058527;28;20194;-77
2022/01/09 05:34:58;;;;;;;10.80;10.20;;;4.00;99.90;;;;;;5064901;28;20193;-77
2022/01/09 05:37:25;;;;;;;10.77;10.27;;;3.90;99.90;;;;;;5065426;28;20963;-77
2022/01/09 05:39:52;;;;;;;11.60;10.90;;;3.90;99.90;;;;;;5058355;28;20849;-78
2022/01/09 05:42:19;;;;;;;12.00;11.40;;;3.80;99.90;;;;;;5058270;28;20957;-77
2022/01/09 05:44:47;;;;;;;12.00;11.40;;;3.70;99.90;;;;;;5077588;28;20201;-78
2022/01/09 05:47:14;;;;;;;12.30;11.70;;;3.70;99.90;;;;;;5062785;28;20586;-77
2022/01/09 05:49:41;;;;;;;12.00;11.40;;;3.70;99.90;;;;;;5067338;28;20477;-77
2022/01/09 05:52:09;;;;;;;12.03;11.43;;;3.60;99.90;;;;;;5080260;28;20261;-78
2022/01/09 05:54:36;;;;;;;11.80;11.20;;;3.50;99.90;;;;;;5067966;28;20486;-78
2022/01/09 05:57:03;;;;;;;11.77;11.17;;;3.50;99.90;;;;;;5070660;28;20197;-76
2022/01/09 05:59:30;;;;;;;11.80;11.20;;;3.40;99.90;;;;;;5074698;28;20584;-79
2022/01/09 06:01:58;;;;;;;11.90;11.30;;;3.30;99.90;;;;;;5085914;28;20803;-78
2022/01/09 06:04:25;;;;;;;11.80;11.20;;;3.30;99.90;;;;;;5088316;28;20446;-77
2022/01/09 06:06:54;;;;;;;12.00;11.40;;;3.30;99.90;;;;;;5069257;28;20446;-78
2022/01/09 06:09:21;;;;;;;12.10;11.50;;;3.20;99.90;;;;;;5065500;28;20529;-76
2022/01/09 06:11:48;;;;;;;12.37;11.77;;;3.20;99.90;;;;;;5077734;28;20440;-77
2022/01/09 06:14:15;;;;;;;12.40;11.80;;;3.20;99.90;;;;;;5071569;28;20459;-75
2022/01/09 06:16:42;;;;;;;12.30;11.70;;;3.20;99.90;;;;;;5088027;28;20440;-75
2022/01/09 06:19:10;;;;;;;12.50;11.90;;;3.20;99.90;;;;;;5080469;28;20999;-74
2022/01/09 06:21:37;;;;;;;12.27;11.67;;;3.20;99.90;;;;;;5068163;28;20980;-75
2022/01/09 06:24:04;;;;;;;12.50;11.90;;;3.20;99.90;;;;;;5060000;28;20466;-79
2022/01/09 06:26:31;;;;;;;12.90;12.20;;;3.20;99.90;;;;;;5081280;28;20448;-76
2022/01/09 06:28:58;;;;;;;12.60;12.00;;;3.20;99.90;;;;;;5077344;28;20440;-75
2022/01/09 06:31:25;;;;;;;12.47;11.87;;;3.20;99.90;;;;;;5080408;28;21018;-75
2022/01/09 06:33:52;;;;;;;12.50;11.90;;;3.20;99.90;;;;;;5086833;28;20435;-75
2022/01/09 06:36:20;;;;;;;12.50;11.90;;;3.20;99.90;;;;;;5077091;28;20443;-73
2022/01/09 06:38:47;;;;;;;12.40;11.80;;;3.20;99.90;;;;;;5060677;28;20452;-76
2022/01/09 06:41:14;;;;;;;12.60;12.00;;;3.20;99.90;;;;;;5067203;28;20476;-76
2022/01/09 06:43:44;;;;;;;12.60;12.00;;;3.20;99.90;;;;;;5061030;28;20516;-75
2022/01/09 06:46:11;;;;;;;12.80;12.20;;;3.20;99.90;;;;;;5076998;28;20660;-75
2022/01/09 06:48:38;;;;;;;12.57;11.97;;;3.30;99.90;;;;;;5063728;28;20970;-77
2022/01/09 06:51:05;;;;;;;12.47;11.87;;;3.30;99.90;;;;;;5064259;28;21019;-77
2022/01/09 06:53:33;;;;;;;12.80;12.10;;;3.30;99.90;;;;;;5077506;28;20839;-77
2022/01/09 06:56:00;;;;;;;12.57;11.97;;;3.30;99.90;;;;;;5071178;28;20871;-77
2022/01/09 06:58:27;;;;;;;12.40;11.80;;;3.30;99.90;;;;;;5060977;28;20834;-78
2022/01/09 07:00:54;;;;;;;12.10;11.50;;;3.30;99.90;;;;;;5083198;28;20853;-77
2022/01/09 07:03:21;;;;;;;12.40;11.80;;;3.30;99.90;;;;;;5061581;28;20909;-77
2022/01/09 07:05:47;;;;;;;12.53;11.93;;;3.30;99.90;;;;;;5052907;28;20838;-78
2022/01/09 07:08:14;;;;;;;12.60;12.00;;;3.30;99.90;;;;;;5059243;28;20453;-78
2022/01/09 07:10:45;;;;;;;12.80;12.20;;;3.20;99.90;;;;;;5059051;28;20611;-78
2022/01/09 07:13:11;;;;;;;13.03;12.43;;;3.20;99.90;;;;;;5055872;28;20451;-77
2022/01/09 07:15:38;;;;;;;13.20;12.50;;;3.20;99.90;;;;;;5085113;22;20487;-79
2022/01/09 07:18:07;;;;;;;13.23;12.57;;;3.20;99.90;;;;;;5037144;28;20540;-79
2022/01/09 07:20:37;;;;;;;13.50;12.80;;;3.20;99.90;;;;;;5051686;28;20575;-80
2022/01/09 07:23:04;;;;;;;13.23;12.57;;;3.20;99.90;;;;;;5056026;28;20447;-79
2022/01/09 07:25:55;;;;;;;13.17;12.53;;;3.20;99.90;;;;;;5037808;28;20494;-80
2022/01/09 07:29:04;;;;;;;13.23;12.53;;;3.20;99.90;;;;;;5055211;28;20433;-80
2022/01/09 07:32:28;;;;;;;13.40;12.70;;;3.20;99.90;;;;;;5031118;28;20827;-80
2022/01/09 07:34:57;;;;;;;13.60;12.90;;;3.20;99.90;;;;;;5049756;28;20763;-79
2022/01/09 07:47:47;;;;;;;13.30;12.60;;;3.30;99.90;;;;;;5042833;28;20461;-82
2022/01/09 07:50:46;;;;;;;13.20;12.50;;;3.40;99.90;;;;;;5045653;28;20463;-80
2022/01/09 07:56:40;;;;;;;13.00;12.30;;;3.40;99.90;;;;;;5036513;28;20471;-80
2022/01/09 07:59:07;;;;;;;13.38;12.68;;;3.50;99.90;;;;;;5054523;28;20424;-81
2022/01/09 08:01:38;;;;;;;9.05;8.55;;;3.50;99.90;;;;;;5037509;28;20451;-85
2022/01/09 08:04:05;;;;;;;11.47;10.77;;;3.50;99.90;;;;;;5039036;28;20230;-82
2022/01/09 08:06:32;;;;;;;11.70;10.90;;;3.50;99.90;;;;;;5058861;28;20284;-82
2022/01/09 08:08:59;;;;;;;11.50;10.70;;;3.50;99.90;;;;;;5041652;28;20191;-82
2022/01/09 08:11:26;;;;;;;12.00;11.20;;;3.60;99.90;;;;;;5057350;28;20265;-82
2022/01/09 08:13:54;;;;;;;12.43;11.73;;;3.60;99.90;;;;;;5041646;28;20271;-82
2022/01/09 08:16:21;;;;;;;13.00;12.10;;;3.60;99.90;;;;;;5039319;28;20292;-82
2022/01/09 08:18:49;;;;;;;12.77;12.07;;;3.60;99.90;;;;;;5039815;28;20293;-82
2022/01/09 08:21:20;;;;;;;12.93;12.23;;;3.70;99.90;;;;;;5039356;28;20482;-83
2022/01/09 08:23:48;;;;;;;13.10;12.23;;;3.70;99.90;;;;;;5058041;28;20444;-82
2022/01/09 08:26:15;;;;;;;12.70;11.90;;;3.70;99.90;;;;;;5037522;28;20229;-81
2022/01/09 08:28:48;;;;;;;12.33;11.67;;;3.70;99.90;;;;;;5056193;28;20223;-82
2022/01/09 08:31:29;;;;;;;13.10;12.30;;;3.70;99.90;;;;;;5055832;28;20199;-79
2022/01/09 08:37:23;;;;;;;12.83;12.13;;;3.80;99.90;;;;;;5051425;28;20328;-82
2022/01/09 08:39:50;;;;;;;13.33;12.53;;;3.80;99.90;;;;;;5053270;28;20223;-82
2022/01/09 08:42:17;;;;;;;13.60;12.70;;;3.80;99.90;;;;;;5035139;28;20990;-82
2022/01/09 08:44:53;;;;;;;11.87;11.20;;;3.90;99.90;;;;;;5039263;28;20845;-85
2022/01/09 08:47:20;;;;;;;12.00;11.30;;;3.90;99.90;;;;;;5043297;28;20257;-82
2022/01/09 08:49:51;;;;;;;12.00;11.30;;;3.90;99.90;;;;;;5040199;28;20473;-81
2022/01/09 08:52:18;;;;;;;11.70;11.00;;;4.00;99.90;;;;;;5038209;28;20212;-81
2022/01/09 08:54:50;;;;;;;11.70;11.00;;;4.10;99.90;;;;;;5060470;28;20202;-83
2022/01/09 08:57:17;;;;;;;11.80;11.10;;;4.10;99.90;;;;;;5047011;28;20570;-80
2022/01/09 08:59:44;;;;;;;12.00;11.30;;;4.20;99.90;;;;;;5054413;28;20453;-80
2022/01/09 09:02:11;;;;;;;11.70;11.00;;;4.30;99.90;;;;;;5036230;28;20195;-80
2022/01/09 09:04:38;;;;;;;11.70;11.00;;;4.40;99.90;;;;;;5036865;28;20619;-80
2022/01/09 09:07:06;;;;;;;12.00;11.10;;;4.50;99.90;;;;;;5045978;28;20416;-79
2022/01/09 09:09:33;;;;;;;11.63;10.80;;;4.50;99.90;;;;;;5045434;28;20199;-80
2022/01/09 09:12:02;;;;;;;12.03;11.23;;;4.60;99.90;;;;;;5035650;28;20520;-80
2022/01/09 09:14:29;;;;;;;12.90;12.10;;;4.60;99.90;;;;;;5038270;28;20244;-79
2022/01/09 09:16:56;;;;;;;12.03;11.23;;;4.60;99.90;;;;;;5039523;28;20230;-77
2022/01/09 09:19:25;;;;;;;11.83;11.13;;;4.70;99.90;;;;;;5055389;28;20207;-85
2022/01/09 09:21:59;;;;;;;12.70;11.90;;;4.80;99.90;;;;;;5054101;28;20211;-83
2022/01/09 09:24:33;;;;;;;12.57;11.67;;;4.80;99.90;;;;;;5056268;28;20621;-79
2022/01/09 09:30:07;;;;;;;12.03;11.23;;;5.10;99.90;;;;;;5033016;28;20199;-79
2022/01/09 09:32:35;;;;;;;12.63;11.70;;;5.10;99.90;;;;;;5038804;28;20206;-80
2022/01/09 09:35:03;;;;;;;12.20;11.30;;;5.00;99.90;;;;;;5058136;28;20195;-78
2022/01/09 09:37:30;;;;;;;8.00;3.37;;;5.00;99.90;;;;;;5053968;28;20210;-79
2022/01/09 09:39:58;;;;;;;6.17;3.27;;;5.00;99.90;;;;;;5026208;28;20211;-79
2022/01/09 09:42:25;;;;;;;5.07;3.20;;;5.00;99.90;;;;;;5052209;28;20187;-79
2022/01/09 09:44:52;;;;;;;5.43;3.23;;;5.00;99.90;;;;;;5040328;28;20195;-79
2022/01/09 09:47:21;;;;;;;8.77;8.20;;;5.10;99.90;;;;;;5056630;28;20586;-80
2022/01/09 09:49:48;;;;;;;4.10;3.40;;;5.10;99.90;;;;;;5056740;28;20274;-79
2022/01/09 09:52:18;;;;;;;4.53;3.13;;;5.10;99.90;;;;;;5057394;28;20194;-79
2022/01/09 09:54:46;;;;;;;3.70;3.07;;;5.10;99.90;;;;;;5056414;28;20217;-80
2022/01/09 09:57:14;;;;;;;7.07;3.50;;;5.10;99.90;;;;;;5034620;28;20227;-80
2022/01/09 09:59:41;;;;;;;8.30;3.10;;;5.10;99.90;;;;;;5034923;28;20211;-79
2022/01/09 10:02:11;;;;;;;3.50;3.10;;;5.10;99.90;;;;;;5056654;28;20207;-79
2022/01/09 10:04:56;;;;;;;4.13;2.87;;;5.10;99.90;;;;;;5056092;28;20195;-79
2022/01/09 10:07:23;;;;;;;4.93;2.93;;;5.10;99.90;;;;;;5039536;28;20226;-80
2022/01/09 10:09:54;;;;;;;5.40;2.70;;;5.10;99.90;;;;;;5054722;28;20268;-79
2022/01/09 10:12:26;;;;;;;3.53;2.90;;;5.10;99.90;;;;;;5051340;28;20456;-78
2022/01/09 10:14:55;;;;;;;3.20;2.90;;;5.00;99.90;;;;;;5025578;28;20195;-78
2022/01/09 10:17:23;;;;;;;8.50;7.90;;;5.20;99.90;;;;;;5047712;28;20439;-77
2022/01/09 10:19:54;;;;;;;4.00;3.20;;;5.30;99.90;;;;;;5029858;28;20267;-77
2022/01/09 10:22:40;;;;;;;5.13;3.30;;;5.30;99.90;;;;;;5030758;28;20594;-78
2022/01/09 10:25:30;;;;;;;11.37;10.43;;;5.20;99.90;;;;;;5051367;28;20215;-78
2022/01/09 10:28:01;;;;;;;9.73;9.03;;;5.10;99.90;;;;;;5047065;28;20196;-78
2022/01/09 10:30:30;;;;;;;7.97;6.43;;;5.10;99.90;;;;;;5054172;28;20188;-77
2022/01/09 10:32:59;;;;;;;5.38;3.90;;;5.10;99.90;;;;;;5054043;28;20427;-77
2022/01/09 10:35:27;;;;;;;13.63;12.57;;;5.30;99.90;;;;;;5056117;28;20640;-77
2022/01/09 10:38:14;;;;;;;14.80;13.80;;;5.40;99.90;;;;;;5055375;28;20206;-77
2022/01/09 10:40:43;;;;;;;11.70;10.70;;;5.50;99.90;;;;;;5048927;28;20215;-77
2022/01/09 10:43:13;;;;;;;12.47;11.53;;;5.40;99.90;;;;;;5055198;28;20200;-77
2022/01/09 10:45:42;;;;;;;5.13;4.77;;;5.50;99.90;;;;;;5053827;28;20215;-78
2022/01/09 10:48:12;;;;;;;7.43;6.03;;;5.60;99.90;;;;;;5048673;28;20265;-78
2022/01/09 10:50:41;;;;;;;9.57;8.63;;;5.60;99.90;;;;;;5055525;28;20202;-78
2022/01/09 10:53:21;;;;;;;4.93;4.53;;;5.70;99.90;;;;;;5054875;28;20204;-78
2022/01/09 10:56:00;;;;;;;8.03;4.07;;;5.90;99.90;;;;;;5054257;28;20730;-77
2022/01/09 10:58:28;;;;;;;7.10;6.37;;;6.00;99.90;;;;;;5035897;28;20204;-77
2022/01/09 11:01:24;;;;;;;6.83;6.20;;;6.10;99.90;;;;;;5027995;28;20231;-77
2022/01/09 11:03:54;;;;;;;5.90;5.10;;;6.10;99.90;;;;;;5007759;28;20287;-79
2022/01/09 11:06:22;;;;;;;5.00;4.60;;;6.00;99.90;;;;;;5038735;28;20736;-78
2022/01/09 11:08:49;;;;;;;7.27;6.60;;;6.00;99.90;;;;;;5032309;28;20687;-79
2022/01/09 11:11:23;;;;;;;6.30;5.67;;;5.90;99.90;;;;;;5053631;28;20196;-78
2022/01/09 11:13:54;;;;;;;9.50;5.60;;;5.70;99.90;;;;;;5055006;28;20569;-77
2022/01/09 11:16:36;;;;;;;9.17;5.10;;;5.60;99.90;;;;;;5030271;28;20277;-76
2022/01/09 11:19:08;;;;;;;6.47;5.07;;;5.60;99.90;;;;;;5051901;28;20192;-77
2022/01/09 11:21:36;;;;;;;7.43;4.63;;;5.60;99.90;;;;;;5036847;28;20226;-77
2022/01/09 11:24:45;;;;;;;5.93;3.80;;;5.50;99.90;;;;;;5054525;28;20203;-78
2022/01/09 11:27:27;;;;;;;11.60;10.70;;;5.40;99.90;;;;;;5050486;28;20227;-81
2022/01/09 11:30:05;;;;;;;11.90;10.80;;;5.30;99.90;;;;;;5031655;28;20668;-78
2022/01/09 11:32:50;;;;;;;11.63;10.60;;;5.20;99.90;;;;;;5051256;28;20191;-78
2022/01/09 11:35:35;;;;;;;11.13;10.10;;;5.20;99.90;;;;;;5053634;28;20204;-77
2022/01/09 11:38:08;;;;;;;11.73;10.90;;;5.20;99.90;;;;;;5037334;28;20202;-79
2022/01/09 11:40:37;;;;;;;11.70;10.90;;;5.20;99.90;;;;;;5045869;28;20191;-79
2022/01/09 11:43:07;;;;;;;11.53;10.80;;;5.20;99.90;;;;;;5037036;28;20257;-77
2022/01/09 11:45:52;;;;;;;11.20;10.47;;;5.30;99.90;;;;;;5043719;28;20191;-76
2022/01/09 11:48:41;;;;;;;11.10;10.40;;;5.40;99.90;;;;;;5038538;28;20676;-79
2022/01/09 11:51:16;;;;;;;11.63;10.63;;;5.30;99.90;;;;;;5049608;28;20652;-80
2022/01/09 11:54:00;;;;;;;10.93;10.23;;;5.30;99.90;;;;;;5037784;28;20191;-80
2022/01/09 11:56:47;;;;;;;10.87;10.00;;;5.30;99.90;;;;;;5048151;28;20211;-82
2022/01/09 11:59:19;;;;;;;11.63;10.63;;;5.40;99.90;;;;;;5056065;28;20203;-85
2022/01/09 12:01:48;;;;;;;11.90;11.03;;;5.40;99.90;;;;;;5054878;28;20226;-85
2022/01/09 12:04:53;;;;;;;11.40;10.60;;;5.50;99.90;;;;;;5039486;28;20204;-84
2022/01/09 12:08:06;;;;;;;8.20;7.43;;;5.60;99.90;;;;;;5040691;28;20235;-81
2022/01/09 12:10:41;;;;;;;8.87;8.30;;;5.80;99.90;;;;;;5028604;28;20196;-82
2022/01/09 12:13:54;;;;;;;;;;;;;;;;;;;;;
2022/01/09 12:17:00;;;;;;;3.13;2.73;;;5.90;99.90;;;;;;4976020;28;20226;-81
2022/01/09 12:30:35;;;;;;;;;;;;;;;;;;;;;
2022/01/09 12:37:05;;;;;;;3.30;3.00;;;5.90;99.90;;;;;;5055024;28;20301;-83
2022/01/09 12:47:08;;;;;;;4.60;3.13;;;5.90;99.90;;;;;;4910357;29;20292;-84
2022/01/09 12:49:46;;;;;;;5.47;2.80;;;6.00;99.90;;;;;;5012372;28;20699;-81
2022/01/09 12:53:01;;;;;;;5.03;3.03;;;6.10;99.90;;;;;;5038137;28;20204;-83
2022/01/09 12:59:29;;;;;;;8.83;8.20;;;6.30;99.90;;;;;;5036906;28;20206;-85
2022/01/09 13:02:10;;;;;;;3.70;2.60;;;6.40;99.90;;;;;;5035506;28;20223;-83
2022/01/09 13:04:58;;;;;;;2.90;2.70;;;6.40;99.90;;;;;;5055792;28;20203;-83
2022/01/09 13:07:59;;;;;;;4.30;2.80;;;6.40;99.90;;;;;;5034500;28;20260;-83
2022/01/09 13:10:46;;;;;;;5.00;2.87;;;6.20;99.90;;;;;;5026657;28;20209;-83
2022/01/09 13:13:33;;;;;;;4.70;2.70;;;6.10;99.90;;;;;;5042401;28;20253;-81
2022/01/09 13:16:13;;;;;;;2.70;2.50;;;6.00;99.90;;;;;;5081495;22;20315;-77
2022/01/09 13:18:42;;;;;;;3.97;2.97;;;6.00;99.90;;;;;;5073234;28;20206;-78
2022/01/09 13:21:15;;;;;;;5.17;2.93;;;6.00;99.90;;;;;;5081256;28;20202;-77
2022/01/09 13:24:09;;;;;;;4.43;2.70;;;6.10;99.90;;;;;;5076720;28;20202;-78
2022/01/09 13:26:41;;;;;;;7.00;3.00;;;6.10;99.90;;;;;;5077794;28;20215;-78
2022/01/09 13:29:11;;;;;;;3.23;2.93;;;6.10;99.90;;;;;;5083566;28;20708;-78
2022/01/09 13:31:42;;;;;;;3.73;2.70;;;6.10;99.90;;;;;;5072816;28;20737;-78
2022/01/09 13:34:11;;;;;;;3.10;2.80;;;6.00;99.90;;;;;;5075969;28;20199;-77
2022/01/09 13:36:41;;;;;;;3.60;3.00;;;6.10;99.90;;;;;;5078191;28;20226;-77
2022/01/09 13:39:11;;;;;;;3.33;3.00;;;6.00;99.90;;;;;;5077346;28;20210;-77
2022/01/09 13:41:42;;;;;;;3.80;3.50;;;5.90;99.90;;;;;;5079667;28;20203;-77
2022/01/09 13:44:11;;;;;;;3.97;3.50;;;6.00;99.90;;;;;;5079454;28;20668;-76
2022/01/09 13:46:39;;;;;;;3.17;2.87;;;6.00;99.90;;;;;;5082266;28;20214;-77
2022/01/09 13:49:14;;;;;;;5.37;3.50;;;6.10;99.90;;;;;;5074920;28;20191;-78
2022/01/09 13:51:47;;;;;;;4.13;2.77;;;6.20;99.90;;;;;;5077453;28;20615;-79